Heath Springs, South Carolina
Current Conditions -  °F | °C
As of 6:15 AM on Thursday 18 Dec 2014 (Local Time) from KLKR Reporting Station
Heavy Rain Heavy Rain  
Wind Chill: 30°   Ceiling: Unl
Heat Index: 34°   Visibility: 10mi
Dew Point: 34°   Wind: 5mph
Humidity: 100%   Direction: 80°E
Pressure: 30.13"   Gusts: NA
Location:  34.59°N, 80.68°W
Report Text: KLKR 181115Z AUTO 08004KT 10SM +RA CLR 01/01 A3013 RMK AO2
Loading
Personal Weather Stations






























Interactive Weather Map New forecast layout! Learn more

10-Day Weather Forecast

Advertisements
Track Severe Weather on mobile